Time;durP1;ratioP1;P1;durP2;ratioP2;P2;SDS_P1;SDS_P2;PMS_P1;PMS_P2;Temp;Humidity;BMP_temperature;BMP_pressure;BME280_temperature;BME280_humidity;BME280_pressure;Samples;Min_cycle;Max_cycle;Signal;HPM_P1;HPM_P2
2023/04/26 00:01:36;;;;;;;4.80;2.50;;;;;;;13.12;100.00;99128.50;5129631;27;20023;-32
2023/04/26 00:04:02;;;;;;;4.45;2.70;;;;;;;13.15;100.00;99127.97;5129352;27;20027;-33
2023/04/26 00:06:27;;;;;;;4.15;2.30;;;;;;;13.30;100.00;99126.50;5129350;27;20496;-32
2023/04/26 00:08:53;;;;;;;4.22;2.42;;;;;;;13.28;100.00;99126.75;5128933;27;20047;-32
2023/04/26 00:11:18;;;;;;;4.57;2.33;;;;;;;13.39;100.00;99130.28;5129631;27;20024;-32
2023/04/26 00:13:43;;;;;;;4.72;2.50;;;;;;;13.24;100.00;99121.09;5129002;27;20452;-33
2023/04/26 00:16:09;;;;;;;5.53;2.50;;;;;;;13.39;100.00;99120.38;5129228;27;20040;-32
2023/04/26 00:18:34;;;;;;;4.53;2.45;;;;;;;13.30;100.00;99118.44;5128951;27;20050;-33
2023/04/26 00:21:00;;;;;;;5.05;2.67;;;;;;;13.33;100.00;99117.94;5129170;27;20037;-34
2023/04/26 00:23:25;;;;;;;5.57;2.90;;;;;;;13.70;100.00;99112.47;5128886;27;20035;-34
2023/04/26 00:25:51;;;;;;;5.10;2.50;;;;;;;13.62;100.00;99111.09;5128818;27;20051;-33
2023/04/26 00:28:16;;;;;;;4.10;2.50;;;;;;;13.70;100.00;99111.69;5129025;27;20832;-33
2023/04/26 00:30:46;;;;;;;5.32;2.85;;;;;;;13.53;100.00;99095.81;5128619;27;20023;-34
2023/04/26 00:33:12;;;;;;;5.47;3.10;;;;;;;13.52;100.00;99105.72;5128972;27;20023;-34
2023/04/26 00:35:37;;;;;;;6.47;3.20;;;;;;;13.65;100.00;99107.91;5128618;27;20042;-33
2023/04/26 00:38:03;;;;;;;5.60;3.25;;;;;;;13.64;100.00;99114.31;5129064;27;20034;-34
2023/04/26 00:40:29;;;;;;;6.35;3.08;;;;;;;13.70;100.00;99109.78;5128361;27;20953;-34
2023/04/26 00:42:58;;;;;;;7.57;4.07;;;;;;;13.24;100.00;99098.88;5128611;27;20141;-32
2023/04/26 00:45:23;;;;;;;6.47;3.30;;;;;;;13.04;100.00;99099.56;5116766;27;20401;-35
2023/04/26 00:47:49;;;;;;;5.53;3.22;;;;;;;13.04;100.00;99094.19;5123525;27;20034;-33
2023/04/26 00:50:15;;;;;;;7.57;3.80;;;;;;;13.13;100.00;99092.63;5128751;27;20034;-34
2023/04/26 00:52:41;;;;;;;6.53;3.40;;;;;;;13.30;100.00;99097.03;5127237;27;20031;-32
2023/04/26 00:55:07;;;;;;;5.97;3.60;;;;;;;13.54;100.00;99102.78;5128731;27;20043;-33
2023/04/26 00:57:33;;;;;;;6.05;3.53;;;;;;;13.43;100.00;99099.25;5128239;27;20031;-33
2023/04/26 00:59:58;;;;;;;5.70;3.58;;;;;;;13.63;100.00;99087.81;5128039;27;20053;-34
2023/04/26 01:02:24;;;;;;;6.93;3.90;;;;;;;13.54;100.00;99087.50;5128026;27;20023;-34
2023/04/26 01:04:50;;;;;;;8.18;3.85;;;;;;;13.71;100.00;99090.00;5128144;27;20518;-33
2023/04/26 01:07:16;;;;;;;7.07;3.80;;;;;;;13.46;100.00;99085.31;5128275;27;20026;-33
2023/04/26 01:09:43;;;;;;;6.45;3.80;;;;;;;13.29;100.00;99077.50;5120561;27;20023;-33
2023/04/26 01:12:09;;;;;;;6.90;3.65;;;;;;;13.35;100.00;99070.28;5108126;28;20039;-33
2023/04/26 01:14:37;;;;;;;7.80;4.20;;;;;;;13.41;100.00;99077.28;5107409;28;20024;-32
2023/04/26 01:17:04;;;;;;;6.30;3.83;;;;;;;13.07;100.00;99072.25;5107338;27;20027;-33
2023/04/26 01:19:29;;;;;;;6.78;3.80;;;;;;;13.28;100.00;99070.50;5107695;28;20027;-34
2023/04/26 01:21:55;;;;;;;6.50;3.83;;;;;;;13.47;100.00;99070.88;5107312;28;20083;-33
2023/04/26 01:24:20;;;;;;;7.65;4.25;;;;;;;13.33;100.00;99065.19;5107166;28;20046;-33
2023/04/26 01:26:46;;;;;;;8.00;4.28;;;;;;;12.99;100.00;99065.53;5107132;28;20034;-33
2023/04/26 01:29:16;;;;;;;7.35;4.40;;;;;;;13.00;100.00;99066.34;5107436;28;20031;-34
2023/04/26 01:31:42;;;;;;;6.43;4.18;;;;;;;13.10;100.00;99062.91;5107240;28;20023;-33
2023/04/26 01:34:08;;;;;;;6.93;4.00;;;;;;;13.44;100.00;99066.03;5107022;28;20027;-33
2023/04/26 01:36:33;;;;;;;6.97;3.72;;;;;;;13.55;100.00;99056.19;5106809;28;20042;-34
2023/04/26 01:38:59;;;;;;;7.28;5.13;;;;;;;13.68;100.00;99061.03;5106977;27;20409;-33
2023/04/26 01:41:24;;;;;;;12.50;10.57;;;;;;;13.72;100.00;99059.44;5107002;28;20057;-33
2023/04/26 01:43:50;;;;;;;22.05;19.95;;;;;;;13.63;100.00;99059.16;5106708;28;20060;-34
2023/04/26 01:46:15;;;;;;;50.70;45.35;;;;;;;13.82;100.00;99055.97;5107230;28;20034;-32
2023/04/26 01:48:40;;;;;;;38.83;34.70;;;;;;;13.61;100.00;99053.25;5106604;28;20093;-33
2023/04/26 01:51:06;;;;;;;32.88;29.08;;;;;;;13.54;100.00;99052.69;5106759;28;20072;-33
2023/04/26 01:53:31;;;;;;;20.98;17.58;;;;;;;13.57;100.00;99038.78;5106530;28;20024;-33
2023/04/26 01:56:01;;;;;;;10.93;8.02;;;;;;;13.31;100.00;99042.44;5106932;28;20510;-33
2023/04/26 01:58:27;;;;;;;7.53;4.47;;;;;;;13.15;100.00;99033.50;5106572;28;20035;-33
2023/04/26 02:00:52;;;;;;;10.98;3.92;;;;;;;13.12;100.00;99029.47;5106666;28;20401;-33
2023/04/26 02:03:17;;;;;;;7.47;3.58;;;;;;;12.97;100.00;99034.72;5106670;28;20518;-33
2023/04/26 02:05:43;;;;;;;6.75;3.90;;;;;;;13.14;100.00;99035.38;5106478;28;20468;-33
2023/04/26 02:08:08;;;;;;;6.93;3.63;;;;;;;13.11;100.00;99033.19;5106319;28;20122;-32
2023/04/26 02:10:34;;;;;;;5.78;3.20;;;;;;;12.78;100.00;99037.03;5106124;28;20024;-32
2023/04/26 02:12:59;;;;;;;7.75;4.65;;;;;;;12.66;100.00;99038.03;5106559;28;20416;-33
2023/04/26 02:15:25;;;;;;;8.23;5.35;;;;;;;12.65;100.00;99032.97;5106490;28;20084;-33
2023/04/26 02:17:52;;;;;;;7.65;5.07;;;;;;;12.53;100.00;99037.69;5106142;28;20024;-32
2023/04/26 02:20:18;;;;;;;7.57;5.07;;;;;;;12.59;100.00;99034.00;5106125;28;20034;-33
2023/04/26 02:22:43;;;;;;;6.90;4.35;;;;;;;12.44;100.00;99027.47;5106371;28;20036;-33
2023/04/26 02:25:10;;;;;;;6.30;3.92;;;;;;;12.68;100.00;99032.44;5106408;28;20019;-32
2023/04/26 02:27:35;;;;;;;7.53;3.80;;;;;;;12.61;100.00;99027.31;5106139;28;20031;-34
2023/04/26 02:30:01;;;;;;;6.70;4.45;;;;;;;12.97;100.00;99037.41;5106080;28;20024;-33
2023/04/26 02:32:26;;;;;;;6.47;4.25;;;;;;;13.10;100.00;99039.63;5106369;28;20078;-33
2023/04/26 02:34:52;;;;;;;7.13;4.50;;;;;;;13.32;100.00;99050.22;5106202;28;20023;-35
2023/04/26 02:37:17;;;;;;;6.85;4.50;;;;;;;13.04;100.00;99060.22;5105802;28;20028;-35
2023/04/26 02:39:43;;;;;;;7.30;4.22;;;;;;;13.36;100.00;99062.00;5106212;28;20062;-33
2023/04/26 02:42:09;;;;;;;6.82;4.40;;;;;;;13.13;100.00;99055.16;5106139;28;20024;-34
2023/04/26 02:44:35;;;;;;;7.65;4.28;;;;;;;12.73;100.00;99055.72;5106019;28;20065;-32
2023/04/26 02:47:00;;;;;;;6.57;4.13;;;;;;;13.13;100.00;99060.50;5106123;28;20138;-33
2023/04/26 02:49:26;;;;;;;8.60;4.60;;;;;;;13.01;100.00;99058.03;5106113;28;20131;-34
2023/04/26 02:51:52;;;;;;;8.07;4.93;;;;;;;13.18;100.00;99063.22;5106020;28;20020;-33
2023/04/26 02:54:17;;;;;;;6.32;3.92;;;;;;;12.89;100.00;99070.81;5105932;28;20130;-33
2023/04/26 02:56:43;;;;;;;7.38;4.60;;;;;;;13.00;100.00;99074.38;5106298;28;20027;-32
2023/04/26 02:59:08;;;;;;;7.82;4.75;;;;;;;13.07;100.00;99072.25;5105929;28;20054;-32
2023/04/26 03:01:33;;;;;;;8.50;4.60;;;;;;;12.81;100.00;99055.25;5105827;28;20405;-33
2023/04/26 03:03:59;;;;;;;8.88;4.93;;;;;;;13.07;100.00;99062.34;5105882;28;20458;-32
2023/04/26 03:06:24;;;;;;;8.63;5.22;;;;;;;12.80;100.00;99045.63;5105912;28;20024;-34
2023/04/26 03:08:50;;;;;;;7.07;4.97;;;;;;;12.89;100.00;99054.75;5105852;28;20046;-33
2023/04/26 03:11:15;;;;;;;9.57;5.38;;;;;;;13.15;100.00;99069.09;5105804;28;20424;-32
2023/04/26 03:13:40;;;;;;;9.73;5.18;;;;;;;13.21;100.00;99062.69;5105639;28;20023;-34
2023/04/26 03:16:06;;;;;;;8.38;5.00;;;;;;;13.10;100.00;99055.69;5109107;28;20103;-32
2023/04/26 03:18:32;;;;;;;7.32;4.70;;;;;;;13.21;100.00;99069.94;5110043;28;20024;-32
2023/04/26 03:20:58;;;;;;;7.85;4.53;;;;;;;12.97;100.00;99064.16;5109490;28;20459;-33
2023/04/26 03:23:24;;;;;;;7.97;4.28;;;;;;;13.17;100.00;99072.31;5109666;28;20028;-32
2023/04/26 03:25:50;;;;;;;11.35;4.78;;;;;;;13.08;100.00;99073.88;5109634;28;20077;-33
2023/04/26 03:28:16;;;;;;;7.25;4.32;;;;;;;12.64;100.00;99071.44;5109693;28;20084;-33
2023/04/26 03:30:41;;;;;;;6.45;4.10;;;;;;;12.41;100.00;99069.94;5109479;28;20031;-33
2023/04/26 03:33:07;;;;;;;7.88;4.20;;;;;;;12.23;100.00;99058.56;5109654;28;20035;-35
2023/04/26 03:35:32;;;;;;;7.78;4.72;;;;;;;12.24;100.00;99054.84;5109477;28;20365;-33
2023/04/26 03:37:57;;;;;;;9.18;6.03;;;;;;;12.34;100.00;99047.94;5109071;28;20517;-32
2023/04/26 03:40:23;;;;;;;8.35;5.60;;;;;;;12.30;100.00;99047.69;5109594;28;20030;-32
2023/04/26 03:42:48;;;;;;;7.30;5.13;;;;;;;12.33;100.00;99046.34;5109197;28;20092;-33
2023/04/26 03:45:14;;;;;;;8.32;5.70;;;;;;;12.19;100.00;99045.97;5104109;27;20570;-34
2023/04/26 03:47:39;;;;;;;7.97;5.30;;;;;;;12.39;100.00;99040.00;5115038;27;20023;-35
2023/04/26 03:50:07;;;;;;;7.57;5.10;;;;;;;12.36;100.00;99049.34;5095558;27;20412;-33
2023/04/26 03:52:32;;;;;;;8.93;5.80;;;;;;;12.62;100.00;99039.59;5123355;27;20605;-33
2023/04/26 03:54:57;;;;;;;9.30;5.75;;;;;;;12.48;100.00;99042.97;5123622;27;20027;-33
2023/04/26 03:57:23;;;;;;;9.20;6.38;;;;;;;12.87;100.00;99062.22;5110966;27;20116;-33
2023/04/26 03:59:48;;;;;;;9.35;5.90;;;;;;;12.76;100.00;99056.03;5127952;27;20027;-33
2023/04/26 04:02:14;;;;;;;9.85;6.63;;;;;;;12.48;100.00;99069.72;5129769;27;20030;-34
2023/04/26 04:04:39;;;;;;;9.52;6.10;;;;;;;12.02;100.00;99056.78;5129101;27;20168;-34
2023/04/26 04:07:05;;;;;;;9.77;5.93;;;;;;;12.21;100.00;99086.63;5129044;27;20031;-34
2023/04/26 04:09:31;;;;;;;8.15;5.28;;;;;;;12.19;100.00;99078.84;5129458;27;21145;-35
2023/04/26 04:11:56;;;;;;;6.25;4.40;;;;;;;12.43;100.00;99095.38;5129568;27;20039;-32
2023/04/26 04:14:21;;;;;;;7.68;4.57;;;;;;;12.45;100.00;99087.91;5119108;27;20035;-32
2023/04/26 04:16:47;;;;;;;7.30;4.47;;;;;;;12.52;100.00;99092.22;5125847;27;20027;-33
2023/04/26 04:19:12;;;;;;;8.55;4.78;;;;;;;12.65;100.00;99091.81;5128471;27;20058;-33
2023/04/26 04:21:39;;;;;;;9.10;4.40;;;;;;;12.60;100.00;99087.19;5116278;27;20027;-33
2023/04/26 04:24:05;;;;;;;9.43;4.93;;;;;;;12.81;100.00;99088.19;5108567;27;20123;-33
2023/04/26 04:26:30;;;;;;;6.95;4.38;;;;;;;12.96;100.00;99097.38;5110273;27;20111;-32
2023/04/26 04:28:56;;;;;;;8.60;5.50;;;;;;;12.68;100.00;99091.28;5106627;27;20030;-33
2023/04/26 04:31:21;;;;;;;8.50;5.50;;;;;;;12.60;100.00;99110.47;5114340;27;20027;-33
2023/04/26 04:33:47;;;;;;;11.65;6.55;;;;;;;13.10;100.00;99106.56;5108381;28;20035;-34
2023/04/26 04:36:15;;;;;;;8.95;6.05;;;;;;;12.97;100.00;99081.03;5108396;28;20032;-32
2023/04/26 04:38:41;;;;;;;9.07;5.55;;;;;;;12.91;100.00;99105.34;5108197;28;20047;-33
2023/04/26 04:41:07;;;;;;;8.00;5.13;;;;;;;13.09;100.00;99102.25;5108688;28;20027;-33
2023/04/26 04:43:33;;;;;;;9.23;6.07;;;;;;;12.88;100.00;99100.53;5108051;28;20035;-34
2023/04/26 04:45:59;;;;;;;8.07;4.70;;;;;;;13.15;100.00;99082.47;5108630;28;20024;-33
2023/04/26 04:48:24;;;;;;;9.35;4.82;;;;;;;13.54;100.00;99108.94;5107530;28;20122;-33
2023/04/26 04:50:50;;;;;;;7.25;4.60;;;;;;;13.52;100.00;99100.34;5108565;28;20032;-32
2023/04/26 04:53:16;;;;;;;9.35;4.82;;;;;;;13.46;100.00;99077.28;5107894;28;20028;-33
2023/04/26 04:55:41;;;;;;;7.13;4.57;;;;;;;13.77;100.00;99085.44;5108293;28;20027;-32
2023/04/26 04:58:07;;;;;;;9.55;5.22;;;;;;;13.78;100.00;99079.00;5106497;28;20032;-32
2023/04/26 05:00:32;;;;;;;8.73;4.93;;;;;;;14.01;100.00;99089.25;5107752;27;20583;-33
2023/04/26 05:02:58;;;;;;;8.13;4.18;;;;;;;14.05;100.00;99087.63;5108047;28;20107;-33
2023/04/26 05:05:23;;;;;;;7.63;4.20;;;;;;;14.05;100.00;99092.19;5107469;28;20111;-33
2023/04/26 05:07:49;;;;;;;6.65;4.57;;;;;;;13.79;100.00;99091.31;5107628;28;20149;-32
2023/04/26 05:10:14;;;;;;;7.00;4.03;;;;;;;13.69;100.00;99088.63;5107347;28;20020;-33
2023/04/26 05:12:40;;;;;;;6.90;3.83;;;;;;;13.83;100.00;99087.06;5108018;28;20408;-33
2023/04/26 05:15:06;;;;;;;8.15;4.40;;;;;;;13.82;100.00;99078.22;5107581;28;20048;-33
2023/04/26 05:17:32;;;;;;;6.70;4.43;;;;;;;14.05;100.00;99082.28;5107513;28;20092;-32
2023/04/26 05:19:58;;;;;;;9.10;4.30;;;;;;;13.94;100.00;99069.94;5107630;28;20023;-32
2023/04/26 05:22:24;;;;;;;7.03;3.85;;;;;;;13.94;100.00;99072.63;5107274;28;20451;-33
2023/04/26 05:24:49;;;;;;;7.88;4.00;;;;;;;13.83;100.00;99079.84;5107639;28;20494;-33
2023/04/26 05:27:15;;;;;;;7.53;4.13;;;;;;;13.74;100.00;99080.63;5107105;27;20035;-32
2023/04/26 05:29:40;;;;;;;6.03;4.00;;;;;;;13.81;100.00;99084.66;5107606;28;20031;-33
2023/04/26 05:32:06;;;;;;;6.72;4.10;;;;;;;13.60;100.00;99086.44;5106945;28;20023;-33
2023/04/26 05:34:31;;;;;;;7.50;4.30;;;;;;;13.68;100.00;99081.66;5107195;28;20034;-33
2023/04/26 05:36:57;;;;;;;7.32;4.30;;;;;;;13.78;100.00;99087.06;5106604;28;20038;-33
2023/04/26 05:39:23;;;;;;;7.20;4.10;;;;;;;13.51;100.00;99087.25;5109855;27;20038;-33
2023/04/26 05:41:48;;;;;;;6.15;4.35;;;;;;;13.68;100.00;99081.66;5109574;27;20110;-33
2023/04/26 05:44:13;;;;;;;8.10;3.95;;;;;;;13.66;100.00;99090.75;5106964;28;20447;-32
2023/04/26 05:46:39;;;;;;;7.65;4.53;;;;;;;13.82;100.00;99090.81;5106667;28;20023;-35
2023/04/26 05:49:05;;;;;;;7.72;4.60;;;;;;;13.71;100.00;99090.00;5105690;28;20471;-33
2023/04/26 05:51:30;;;;;;;6.78;4.47;;;;;;;13.72;100.00;99099.63;5106842;28;21234;-32
2023/04/26 05:53:56;;;;;;;8.32;4.55;;;;;;;13.67;100.00;99088.91;5106228;28;20393;-34
2023/04/26 05:56:23;;;;;;;8.02;4.35;;;;;;;13.78;100.00;99079.00;5107154;28;20072;-33
2023/04/26 05:58:48;;;;;;;7.03;4.32;;;;;;;14.17;100.00;99091.97;5106524;28;20146;-33
2023/04/26 06:01:14;;;;;;;7.18;4.20;;;;;;;14.40;100.00;99091.44;5106855;28;20168;-34
2023/04/26 06:03:39;;;;;;;7.57;4.90;;;;;;;14.53;100.00;99086.63;5106102;28;20031;-33
2023/04/26 06:06:05;;;;;;;8.32;4.70;;;;;;;14.73;100.00;99089.31;5108261;28;20032;-33
2023/04/26 06:08:30;;;;;;;7.82;5.22;;;;;;;14.76;100.00;99080.72;5111006;27;20040;-33
2023/04/26 06:10:56;;;;;;;8.93;4.88;;;;;;;14.88;100.00;99088.50;5126912;27;20066;-33
2023/04/26 06:13:21;;;;;;;7.15;4.40;;;;;;;14.88;99.27;99095.75;5126936;27;20035;-33
2023/04/26 06:15:47;;;;;;;7.45;4.93;;;;;;;14.89;100.00;99091.97;5107867;27;20462;-32
2023/04/26 06:18:12;;;;;;;8.18;4.50;;;;;;;14.83;100.00;99091.19;5105057;28;20031;-32
2023/04/26 06:20:37;;;;;;;8.82;5.47;;;;;;;14.97;100.00;99086.06;5104996;28;20020;-32
2023/04/26 06:23:03;;;;;;;7.43;4.88;;;;;;;14.82;100.00;99082.31;5106082;28;20047;-33
2023/04/26 06:25:29;;;;;;;8.10;5.05;;;;;;;15.27;100.00;99093.25;5105488;28;20041;-33
2023/04/26 06:27:54;;;;;;;8.20;5.38;;;;;;;15.14;100.00;99091.94;5098350;28;20416;-33
2023/04/26 06:30:20;;;;;;;10.93;5.57;;;;;;;15.10;100.00;99095.41;5107341;27;20035;-34
2023/04/26 06:32:45;;;;;;;7.25;4.63;;;;;;;15.15;100.00;99088.16;5085558;28;20028;-33
2023/04/26 06:35:11;;;;;;;9.50;5.50;;;;;;;15.41;100.00;99086.19;5085557;28;20028;-33
2023/04/26 06:37:37;;;;;;;8.98;6.28;;;;;;;15.19;100.00;99094.59;5085538;28;20115;-34
2023/04/26 06:40:04;;;;;;;8.40;5.28;;;;;;;15.05;100.00;99088.97;5085626;28;20114;-32
2023/04/26 06:42:29;;;;;;;11.10;6.53;;;;;;;15.23;100.00;99095.66;5095135;28;20023;-33
2023/04/26 06:44:55;;;;;;;9.75;7.25;;;;;;;15.56;100.00;99104.13;5105542;28;20020;-33
2023/04/26 06:47:20;;;;;;;8.07;5.82;;;;;;;15.93;98.87;99100.22;5105460;28;20028;-32
2023/04/26 06:49:45;;;;;;;11.02;6.95;;;;;;;16.22;97.69;99104.88;5106799;28;20088;-33
2023/04/26 06:52:11;;;;;;;10.70;7.82;;;;;;;16.32;95.75;99099.44;5110223;28;20058;-33
2023/04/26 06:54:36;;;;;;;9.27;7.20;;;;;;;16.63;90.70;99110.78;5110392;28;20436;-34
2023/04/26 06:57:02;;;;;;;11.73;7.15;;;;;;;16.68;93.47;99096.47;5109923;28;20423;-32
2023/04/26 06:59:27;;;;;;;10.15;7.55;;;;;;;16.60;90.70;99107.84;5109920;28;20567;-32
2023/04/26 07:01:53;;;;;;;10.02;6.30;;;;;;;16.18;97.88;99107.34;5110066;28;20423;-34
2023/04/26 07:04:19;;;;;;;10.80;6.57;;;;;;;16.29;95.70;99108.06;5109628;28;20038;-34
2023/04/26 07:06:45;;;;;;;9.48;5.82;;;;;;;16.52;99.00;99108.44;5110038;28;20035;-32
2023/04/26 07:09:11;;;;;;;10.27;6.55;;;;;;;16.11;96.00;99116.81;5109578;28;20054;-33
2023/04/26 07:11:36;;;;;;;7.95;6.03;;;;;;;16.31;94.26;99111.28;5109850;28;20568;-32
2023/04/26 07:14:03;;;;;;;8.88;6.25;;;;;;;16.09;96.47;99100.16;5109639;28;20127;-33
2023/04/26 07:16:29;;;;;;;8.07;5.28;;;;;;;16.41;95.95;99103.16;5109748;28;20024;-34
2023/04/26 07:18:57;;;;;;;8.18;5.40;;;;;;;16.44;93.38;99094.50;5108712;28;20079;-33
2023/04/26 07:21:23;;;;;;;7.70;5.50;;;;;;;16.84;91.65;99106.03;5108259;28;20094;-34
2023/04/26 07:23:53;;;;;;;11.55;5.43;;;;;;;16.44;90.47;99097.19;5116521;27;20095;-31
2023/04/26 07:26:18;;;;;;;9.07;6.30;;;;;;;16.46;97.50;99105.00;5110836;27;20132;-30
2023/04/26 07:28:43;;;;;;;8.27;5.78;;;;;;;17.24;90.02;99095.94;5109063;28;20492;-31
2023/04/26 07:31:09;;;;;;;7.85;5.70;;;;;;;17.36;91.71;99097.44;5109296;28;20393;-31
2023/04/26 07:33:34;;;;;;;8.80;6.70;;;;;;;17.10;96.66;99102.28;5109379;28;20027;-31
2023/04/26 07:36:00;;;;;;;8.35;5.50;;;;;;;17.03;92.04;99113.41;5109721;28;20551;-32
2023/04/26 07:38:26;;;;;;;6.85;5.30;;;;;;;16.68;94.21;99096.47;5108755;28;20024;-32
2023/04/26 07:40:51;;;;;;;6.63;4.65;;;;;;;16.11;88.76;99119.50;5108943;28;20035;-32
2023/04/26 07:43:18;;;;;;;7.55;4.55;;;;;;;16.44;89.88;99118.72;5108533;28;20080;-33
2023/04/26 07:45:43;;;;;;;8.43;5.90;;;;;;;16.36;92.58;99118.50;5108949;28;20042;-32
2023/04/26 07:48:09;;;;;;;7.35;6.20;;;;;;;16.65;92.26;99118.56;5109070;28;20419;-31
2023/04/26 07:50:35;;;;;;;7.78;5.20;;;;;;;16.85;95.39;99128.38;5108840;28;20032;-31
2023/04/26 07:53:00;;;;;;;6.10;4.65;;;;;;;16.84;89.36;99127.59;5108911;28;20039;-32
2023/04/26 07:55:26;;;;;;;6.95;4.80;;;;;;;17.10;86.81;99123.84;5109156;28;20023;-31
2023/04/26 07:57:51;;;;;;;6.57;4.57;;;;;;;17.00;84.88;99120.16;5108763;28;20059;-32
2023/04/26 08:00:17;;;;;;;6.78;4.97;;;;;;;17.05;89.10;99112.03;5108311;28;20393;-32
2023/04/26 08:02:46;;;;;;;6.28;4.75;;;;;;;17.55;88.81;99114.47;5109193;28;20031;-31
2023/04/26 08:05:12;;;;;;;5.82;3.90;;;;;;;17.07;86.04;99109.06;5108580;28;20118;-31
2023/04/26 08:07:38;;;;;;;6.80;4.00;;;;;;;17.09;87.71;99112.28;5109201;28;20061;-31
2023/04/26 08:10:04;;;;;;;5.80;4.07;;;;;;;17.70;83.75;99121.56;5108362;28;20484;-31
2023/04/26 08:12:31;;;;;;;7.10;4.68;;;;;;;17.55;88.23;99109.06;5108991;28;20111;-31
2023/04/26 08:14:59;;;;;;;6.32;4.05;;;;;;;17.73;85.78;99103.97;5108548;28;20104;-33
2023/04/26 08:17:25;;;;;;;5.50;3.88;;;;;;;18.11;87.71;99112.94;5108234;28;20031;-31
2023/04/26 08:19:50;;;;;;;4.70;3.60;;;;;;;18.35;80.80;99106.63;5108756;28;20024;-31
2023/04/26 08:22:16;;;;;;;4.00;2.83;;;;;;;18.22;78.71;99114.38;5107914;28;20080;-31
2023/04/26 08:24:46;;;;;;;5.32;3.15;;;;;;;19.09;70.57;99106.78;5108328;28;20024;-31
2023/04/26 08:27:12;;;;;;;4.15;2.58;;;;;;;19.45;67.19;99108.78;5108058;28;20046;-31
2023/04/26 08:29:37;;;;;;;4.28;2.60;;;;;;;19.18;67.37;99104.19;5101906;27;20028;-33
2023/04/26 08:32:03;;;;;;;3.67;2.35;;;;;;;19.60;61.34;99099.59;5104198;27;20075;-31
2023/04/26 08:34:28;;;;;;;4.45;2.85;;;;;;;19.79;61.52;99107.59;5104178;27;20030;-31
2023/04/26 08:36:53;;;;;;;4.47;3.10;;;;;;;19.71;62.92;99106.41;5108183;28;20036;-31
2023/04/26 08:39:19;;;;;;;5.43;3.05;;;;;;;19.87;60.92;99099.56;5107834;28;20024;-31
2023/04/26 08:41:50;;;;;;;5.30;2.80;;;;;;;19.68;58.90;99086.13;5108134;28;20077;-31
2023/04/26 08:44:22;;;;;;;3.83;2.50;;;;;;;19.62;62.69;99084.66;5108082;28;20034;-31
2023/04/26 08:47:13;;;;;;;3.60;2.40;;;;;;;19.55;58.52;99103.16;5107900;28;20031;-31
2023/04/26 08:49:42;;;;;;;2.97;2.28;;;;;;;19.83;57.16;99089.66;5107800;28;20120;-31
2023/04/26 08:52:10;;;;;;;4.40;2.80;;;;;;;19.79;59.12;99094.84;5107669;28;20408;-31
2023/04/26 08:54:36;;;;;;;;;;;;;;;19.97;55.12;99085.00;5108335;28;20045;-31
2023/04/26 08:57:02;;;;;;;4.25;3.10;;;;;;;19.76;57.97;99086.56;5107357;28;19912;-32
2023/04/26 08:59:32;;;;;;;3.90;2.75;;;;;;;20.13;57.88;99085.47;5107618;28;20027;-32
2023/04/26 09:02:00;;;;;;;5.90;3.63;;;;;;;20.44;55.87;99090.94;5107788;28;20028;-31
2023/04/26 09:04:25;;;;;;;4.05;2.70;;;;;;;20.16;55.49;99084.03;5107317;28;20058;-31
2023/04/26 09:06:55;;;;;;;3.05;2.30;;;;;;;20.37;54.76;99082.47;5107624;27;20476;-35
2023/04/26 09:09:23;;;;;;;4.57;2.78;;;;;;;20.59;51.23;99078.94;5107521;28;20075;-33
2023/04/26 09:11:58;;;;;;;3.92;2.70;;;;;;;20.71;52.05;99089.22;5106990;28;20027;-32
2023/04/26 09:14:24;;;;;;;3.92;2.45;;;;;;;21.38;49.58;99084.75;5107037;28;20031;-31
2023/04/26 09:16:51;;;;;;;4.07;3.22;;;;;;;21.32;48.36;99080.59;5107174;28;20080;-31
2023/04/26 09:19:17;;;;;;;3.67;2.63;;;;;;;21.23;46.76;99056.94;5107018;28;20020;-32
2023/04/26 09:21:44;;;;;;;4.32;2.63;;;;;;;21.47;48.58;99069.31;5107547;28;20519;-32
2023/04/26 09:24:10;;;;;;;3.38;2.67;;;;;;;21.41;51.71;99074.06;5107041;28;20032;-33
2023/04/26 09:26:35;;;;;;;3.38;2.58;;;;;;;21.33;48.41;99077.56;5107045;28;20104;-32
2023/04/26 09:29:19;;;;;;;3.72;2.60;;;;;;;21.24;52.18;99068.59;5107334;28;20499;-32
2023/04/26 09:31:48;;;;;;;3.78;2.83;;;;;;;20.84;51.95;99074.81;5107157;28;20028;-31
2023/04/26 09:34:14;;;;;;;3.47;2.30;;;;;;;20.99;50.78;99067.38;5106653;28;20024;-31
2023/04/26 09:36:50;;;;;;;3.47;2.35;;;;;;;21.16;48.18;99067.44;5107170;28;20479;-32
2023/04/26 09:39:34;;;;;;;4.55;2.67;;;;;;;21.41;48.78;99056.97;5106937;28;20042;-31
2023/04/26 09:42:00;;;;;;;3.05;2.28;;;;;;;21.62;50.44;99068.88;5106980;28;20028;-31
2023/04/26 09:44:28;;;;;;;2.80;2.22;;;;;;;20.71;52.07;99055.91;5106735;28;20152;-31
2023/04/26 09:47:04;;;;;;;3.03;2.10;;;;;;;21.20;51.41;99073.81;5106718;28;20122;-31
2023/04/26 09:49:51;;;;;;;4.85;2.38;;;;;;;20.83;49.00;99075.91;5106784;28;20036;-32
2023/04/26 09:52:17;;;;;;;4.10;2.38;;;;;;;21.50;48.21;99065.19;5106375;28;20028;-32
2023/04/26 09:54:47;;;;;;;2.92;2.25;;;;;;;21.98;49.11;99059.63;5106493;28;20035;-32
2023/04/26 09:57:14;;;;;;;3.47;2.45;;;;;;;22.10;44.94;99061.72;5106414;28;20449;-32
2023/04/26 09:59:51;;;;;;;3.28;2.30;;;;;;;22.23;43.62;99049.09;5106749;28;20461;-31
2023/04/26 10:02:28;;;;;;;5.00;2.20;;;;;;;22.28;42.31;99065.25;5106831;28;20028;-33
2023/04/26 10:04:55;;;;;;;3.25;2.22;;;;;;;22.24;46.55;99062.38;5106393;28;20042;-32
2023/04/26 10:07:23;;;;;;;2.88;2.13;;;;;;;21.16;44.87;99042.25;5106197;28;20039;-32
2023/04/26 10:09:49;;;;;;;4.03;2.55;;;;;;;20.72;49.09;99060.22;5106235;28;20489;-33
2023/04/26 10:12:17;;;;;;;3.92;2.30;;;;;;;20.96;49.07;99054.44;5106328;27;20031;-31
2023/04/26 10:14:43;;;;;;;4.40;2.83;;;;;;;20.85;50.60;99057.41;5106149;28;20080;-31
2023/04/26 10:17:10;;;;;;;4.50;2.85;;;;;;;20.70;47.82;99029.94;5106541;28;20038;-31
2023/04/26 10:19:37;;;;;;;4.27;2.60;;;;;;;20.07;48.55;99049.59;5106122;28;20047;-32
2023/04/26 10:22:16;;;;;;;3.55;2.50;;;;;;;20.04;49.71;99033.97;5106302;28;20047;-32
2023/04/26 10:24:43;;;;;;;3.75;2.60;;;;;;;19.87;49.42;99044.66;5105789;28;20030;-32
2023/04/26 10:27:08;;;;;;;4.20;3.40;;;;;;;19.98;50.13;99040.63;5106027;28;20454;-31
2023/04/26 10:29:55;;;;;;;3.78;2.50;;;;;;;20.05;48.41;99051.81;5106240;28;20038;-31
2023/04/26 10:32:21;;;;;;;6.32;3.45;;;;;;;19.65;52.85;99048.06;5103755;28;20024;-31
2023/04/26 10:35:26;;;;;;;4.75;2.88;;;;;;;19.42;54.22;99037.19;5090919;28;20027;-32
2023/04/26 10:37:58;;;;;;;5.82;2.90;;;;;;;19.57;51.18;99052.28;5042567;28;20106;-32
2023/04/26 10:40:26;;;;;;;4.53;2.90;;;;;;;19.49;52.01;99050.28;5042438;28;20029;-32
2023/04/26 10:43:10;;;;;;;5.25;3.30;;;;;;;19.59;49.36;99060.91;5065234;28;20044;-32
2023/04/26 10:45:36;;;;;;;5.43;2.92;;;;;;;19.23;51.37;99053.53;5085414;28;20058;-31
2023/04/26 10:48:16;;;;;;;5.03;3.10;;;;;;;18.94;49.35;99061.13;5085525;28;20429;-31
2023/04/26 10:51:12;;;;;;;4.70;3.20;;;;;;;19.03;48.73;99051.22;5085263;28;20032;-32
2023/04/26 10:53:43;;;;;;;4.47;2.97;;;;;;;19.04;50.64;99047.41;5085553;28;20052;-32
2023/04/26 10:56:09;;;;;;;5.57;3.17;;;;;;;18.95;46.25;99050.03;5085398;28;20024;-31
2023/04/26 10:58:39;;;;;;;6.43;3.80;;;;;;;19.05;48.88;99051.72;5085067;28;20043;-32
2023/04/26 11:01:05;;;;;;;5.55;4.07;;;;;;;19.17;48.99;99043.13;5085462;28;20081;-31
2023/04/26 11:03:30;;;;;;;6.10;4.00;;;;;;;18.92;48.97;99047.09;5085352;28;20032;-32
2023/04/26 11:05:56;;;;;;;6.75;3.63;;;;;;;18.65;48.21;99044.06;5085479;28;20028;-31
2023/04/26 11:08:27;;;;;;;6.55;3.70;;;;;;;18.95;50.62;99041.13;5085035;28;20052;-32
2023/04/26 11:11:01;;;;;;;6.07;3.42;;;;;;;18.88;45.32;99049.63;5085345;28;20032;-32
2023/04/26 11:13:31;;;;;;;4.40;3.20;;;;;;;18.58;45.58;99049.03;5085037;28;20056;-32
2023/04/26 11:16:05;;;;;;;5.53;2.53;;;;;;;17.35;56.81;99031.16;5085165;28;20496;-31
2023/04/26 11:18:35;;;;;;;4.20;2.10;;;;;;;16.88;61.43;99038.97;5085222;28;20146;-33
2023/04/26 11:21:01;;;;;;;3.42;2.10;;;;;;;15.99;62.11;99052.59;5085226;28;20024;-33
2023/04/26 11:23:28;;;;;;;4.93;2.30;;;;;;;15.83;64.36;99041.13;5084928;28;20474;-31
2023/04/26 11:26:03;;;;;;;4.13;2.45;;;;;;;15.29;67.15;99025.81;5085342;28;20016;-31
2023/04/26 11:28:32;;;;;;;4.03;2.38;;;;;;;14.93;67.77;99020.56;5084933;28;20032;-31